weather.gov     
National Weather Service

Terminal Aerodrome Forecast
NWS Homepage
This page is being discontinued on March 12, 2014.
The same data is available at this site. Please update your bookmarks.
Thank you, and we apologize for the inconvenience.
Please send an email to SR-SRH.Webmaster@noaa.gov with any concerns.


Current Version
Previous Version:    01  02  03  04  05  06  07  08  09  10  11  12  13  14  15  16  17  18  19  20  21  22  23  
[Printable]
035
FTUS44 KOUN 202345
TAFGAG
TAF
KGAG 202345Z 2100/2124 15015G22KT 5SM -TSRA SCT050CB OVC100CB
      TEMPO 2100/2101 25017G25KT 3SM TSRA FEW008 OVC040CB
     FM210200 17010KT P6SM VCSH SCT007 BKN080
     FM210800 24007KT P6SM BKN007
     FM211200 36010KT P6SM BKN007
     FM211500 36013KT P6SM SCT035=




035
FTUS44 KOUN 202345
TAFGAG
TAF
KGAG 202345Z 2100/2124 15015G22KT 5SM -TSRA SCT050CB OVC100CB
      TEMPO 2100/2101 25017G25KT 3SM TSRA FEW008 OVC040CB
     FM210200 17010KT P6SM VCSH SCT007 BKN080
     FM210800 24007KT P6SM BKN007
     FM211200 36010KT P6SM BKN007
     FM211500 36013KT P6SM SCT035=


U.S. Dept. of Commerce
NOAA National Weather Service
1325 East West Highway
Silver Spring, MD 20910
E-mail: w-nws.webmaster@noaa.gov
Page last modified: May 16, 2007
NATIONAL WEATHER SERVICE: for Safety, for Work, for Fun - FOR LIFE